sensor_id;sensor_type;location;lat;lon;timestamp;pressure;altitude;pressure_sealevel;temperature;humidity
64023;BME280;50264;52.088;5.296;2023-02-28T00:01:11;103158.0;;;0.44;88.42
64023;BME280;50264;52.088;5.296;2023-02-28T00:02:47;103161.99999999999;;;0.51;88.35
64023;BME280;50264;52.088;5.296;2023-02-28T00:06:01;103156.0;;;0.56;88.51
64023;BME280;50264;52.088;5.296;2023-02-28T00:07:37;103155.0;;;0.58;88.14
64023;BME280;50264;52.088;5.296;2023-02-28T00:09:14;103156.0;;;0.69;88.1
64023;BME280;50264;52.088;5.296;2023-02-28T00:12:26;103151.0;;;0.58;87.66
64023;BME280;50264;52.088;5.296;2023-02-28T00:14:03;103156.0;;;0.52;87.99
64023;BME280;50264;52.088;5.296;2023-02-28T00:15:39;103158.99999999999;;;0.5;88.89
64023;BME280;50264;52.088;5.296;2023-02-28T00:18:51;103165.00000000001;;;0.47;88.92
64023;BME280;50264;52.088;5.296;2023-02-28T00:20:27;103167.0;;;0.45;88.88
64023;BME280;50264;52.088;5.296;2023-02-28T00:22:03;103167.0;;;0.54;89.05
64023;BME280;50264;52.088;5.296;2023-02-28T00:23:39;103169.0;;;0.59;88.75
64023;BME280;50264;52.088;5.296;2023-02-28T00:26:56;103168.0;;;0.68;88.53
64023;BME280;50264;52.088;5.296;2023-02-28T00:30:10;103169.0;;;0.79;88.88
64023;BME280;50264;52.088;5.296;2023-02-28T00:33:27;103161.99999999999;;;0.81;88.84
64023;BME280;50264;52.088;5.296;2023-02-28T00:35:05;103164.00000000001;;;0.8;88.46
64023;BME280;50264;52.088;5.296;2023-02-28T00:36:42;103169.0;;;0.85;89.07
64023;BME280;50264;52.088;5.296;2023-02-28T00:38:20;103166.00000000001;;;0.9;88.9
64023;BME280;50264;52.088;5.296;2023-02-28T00:41:32;103164.00000000001;;;0.94;87.88
64023;BME280;50264;52.088;5.296;2023-02-28T00:43:08;103166.00000000001;;;0.93;88.54
64023;BME280;50264;52.088;5.296;2023-02-28T00:44:44;103166.00000000001;;;0.91;88.26
64023;BME280;50264;52.088;5.296;2023-02-28T00:47:56;103167.0;;;0.94;88.27
64023;BME280;50264;52.088;5.296;2023-02-28T00:49:33;103161.99999999999;;;0.92;88.82
64023;BME280;50264;52.088;5.296;2023-02-28T00:51:09;103158.0;;;0.98;88.77
64023;BME280;50264;52.088;5.296;2023-02-28T00:54:22;103157.0;;;1.11;89.08
64023;BME280;50264;52.088;5.296;2023-02-28T00:55:59;103157.0;;;1.11;88.65
64023;BME280;50264;52.088;5.296;2023-02-28T00:57:35;103159.99999999999;;;1.12;89.06
64023;BME280;50264;52.088;5.296;2023-02-28T00:59:12;103155.0;;;1.19;89.06
64023;BME280;50264;52.088;5.296;2023-02-28T01:02:26;103154.0;;;1.24;88.96
64023;BME280;50264;52.088;5.296;2023-02-28T01:04:02;103151.0;;;1.32;88.99
64023;BME280;50264;52.088;5.296;2023-02-28T01:05:38;103149.0;;;1.36;88.96
64023;BME280;50264;52.088;5.296;2023-02-28T01:08:50;103157.0;;;1.37;89.12
64023;BME280;50264;52.088;5.296;2023-02-28T01:10:27;103157.0;;;1.33;89.07
64023;BME280;50264;52.088;5.296;2023-02-28T01:12:04;103159.99999999999;;;1.3;89.25
64023;BME280;50264;52.088;5.296;2023-02-28T01:15:17;103164.00000000001;;;1.31;89.32
64023;BME280;50264;52.088;5.296;2023-02-28T01:16:53;103157.0;;;1.28;89.31
64023;BME280;50264;52.088;5.296;2023-02-28T01:18:29;103159.99999999999;;;1.38;89.05
64023;BME280;50264;52.088;5.296;2023-02-28T01:20:06;103155.0;;;1.44;88.91
64023;BME280;50264;52.088;5.296;2023-02-28T01:23:19;103153.0;;;1.55;88.54
64023;BME280;50264;52.088;5.296;2023-02-28T01:24:56;103155.0;;;1.62;88.61
64023;BME280;50264;52.088;5.296;2023-02-28T01:26:32;103161.99999999999;;;1.7;88.09
64023;BME280;50264;52.088;5.296;2023-02-28T01:29:44;103157.0;;;1.59;88.19
64023;BME280;50264;52.088;5.296;2023-02-28T01:31:22;103156.0;;;1.61;88.31
64023;BME280;50264;52.088;5.296;2023-02-28T01:32:59;103156.0;;;1.6;88.03
64023;BME280;50264;52.088;5.296;2023-02-28T01:36:13;103154.0;;;1.61;87.72
64023;BME280;50264;52.088;5.296;2023-02-28T01:37:51;103150.0;;;1.63;88.02
64023;BME280;50264;52.088;5.296;2023-02-28T01:39:27;103147.0;;;1.73;88.16
64023;BME280;50264;52.088;5.296;2023-02-28T01:41:04;103148.0;;;1.77;88.36
64023;BME280;50264;52.088;5.296;2023-02-28T01:45:24;103151.0;;;1.77;88.92
64023;BME280;50264;52.088;5.296;2023-02-28T01:47:01;103150.0;;;1.85;89.0
64023;BME280;50264;52.088;5.296;2023-02-28T01:48:40;103146.0;;;1.87;88.98
64023;BME280;50264;52.088;5.296;2023-02-28T01:50:20;103149.0;;;1.85;88.86
64023;BME280;50264;52.088;5.296;2023-02-28T01:51:58;103142.0;;;1.89;89.02
64023;BME280;50264;52.088;5.296;2023-02-28T01:53:39;103142.0;;;1.95;89.09
64023;BME280;50264;52.088;5.296;2023-02-28T01:57:00;103142.0;;;1.96;88.54
64023;BME280;50264;52.088;5.296;2023-02-28T01:58:41;103139.00000000001;;;1.96;88.94
64023;BME280;50264;52.088;5.296;2023-02-28T02:00:19;103139.00000000001;;;1.97;88.89
64023;BME280;50264;52.088;5.296;2023-02-28T02:01:59;103133.0;;;1.97;88.69
64023;BME280;50264;52.088;5.296;2023-02-28T02:05:15;103127.0;;;1.9;88.84
64023;BME280;50264;52.088;5.296;2023-02-28T02:06:53;103126.0;;;1.96;89.02
64023;BME280;50264;52.088;5.296;2023-02-28T02:08:30;103119.0;;;2.0;88.76
64023;BME280;50264;52.088;5.296;2023-02-28T02:11:51;103117.0;;;2.05;88.49
64023;BME280;50264;52.088;5.296;2023-02-28T02:13:41;103122.0;;;2.1;88.98
64023;BME280;50264;52.088;5.296;2023-02-28T02:15:31;103121.0;;;2.06;88.7
64023;BME280;50264;52.088;5.296;2023-02-28T02:17:18;103119.0;;;2.05;88.87
64023;BME280;50264;52.088;5.296;2023-02-28T02:19:15;103113.00000000001;;;1.96;88.97
64023;BME280;50264;52.088;5.296;2023-02-28T02:21:44;103114.00000000001;;;1.99;89.15
64023;BME280;50264;52.088;5.296;2023-02-28T02:27:17;103116.00000000001;;;2.0;89.17
64023;BME280;50264;52.088;5.296;2023-02-28T02:29:59;103115.00000000001;;;2.13;89.19
64023;BME280;50264;52.088;5.296;2023-02-28T02:33:22;103117.0;;;2.09;88.95
64023;BME280;50264;52.088;5.296;2023-02-28T02:35:30;103127.0;;;2.07;89.25
64023;BME280;50264;52.088;5.296;2023-02-28T02:39:00;103128.0;;;2.04;89.07
64023;BME280;50264;52.088;5.296;2023-02-28T02:40:47;103130.0;;;2.09;89.37
64023;BME280;50264;52.088;5.296;2023-02-28T02:42:36;103130.0;;;2.13;88.96
64023;BME280;50264;52.088;5.296;2023-02-28T02:44:19;103126.0;;;2.21;88.79
64023;BME280;50264;52.088;5.296;2023-02-28T02:46:01;103124.0;;;2.19;88.68
64023;BME280;50264;52.088;5.296;2023-02-28T02:49:21;103124.0;;;2.25;88.42
64023;BME280;50264;52.088;5.296;2023-02-28T02:51:02;103126.0;;;2.32;88.39
64023;BME280;50264;52.088;5.296;2023-02-28T02:52:44;103123.0;;;2.36;88.08
64023;BME280;50264;52.088;5.296;2023-02-28T02:54:34;103121.0;;;2.25;88.62
64023;BME280;50264;52.088;5.296;2023-02-28T02:57:54;103125.0;;;2.29;88.82
64023;BME280;50264;52.088;5.296;2023-02-28T02:59:34;103127.0;;;2.33;89.11
64023;BME280;50264;52.088;5.296;2023-02-28T03:01:17;103125.0;;;2.39;88.91
64023;BME280;50264;52.088;5.296;2023-02-28T03:02:55;103120.0;;;2.4;89.69
64023;BME280;50264;52.088;5.296;2023-02-28T03:06:18;103122.0;;;2.44;88.58
64023;BME280;50264;52.088;5.296;2023-02-28T03:07:54;103123.0;;;2.5;89.3
64023;BME280;50264;52.088;5.296;2023-02-28T03:09:33;103124.0;;;2.62;88.68
64023;BME280;50264;52.088;5.296;2023-02-28T03:11:13;103127.0;;;2.66;88.1
64023;BME280;50264;52.088;5.296;2023-02-28T03:14:51;103131.0;;;2.56;88.19
64023;BME280;50264;52.088;5.296;2023-02-28T03:16:35;103124.0;;;2.62;88.24
64023;BME280;50264;52.088;5.296;2023-02-28T03:18:24;103128.0;;;2.68;88.24
64023;BME280;50264;52.088;5.296;2023-02-28T03:20:09;103123.0;;;2.56;88.83
64023;BME280;50264;52.088;5.296;2023-02-28T03:22:00;103121.0;;;2.46;88.65
64023;BME280;50264;52.088;5.296;2023-02-28T03:23:45;103123.0;;;2.44;89.16
64023;BME280;50264;52.088;5.296;2023-02-28T03:27:16;103121.0;;;2.4;89.38
64023;BME280;50264;52.088;5.296;2023-02-28T03:29:02;103119.0;;;2.46;89.55
64023;BME280;50264;52.088;5.296;2023-02-28T03:30:46;103123.0;;;2.42;89.65
64023;BME280;50264;52.088;5.296;2023-02-28T03:32:26;103123.0;;;2.52;89.06
64023;BME280;50264;52.088;5.296;2023-02-28T03:34:13;103123.0;;;2.42;89.92
64023;BME280;50264;52.088;5.296;2023-02-28T03:37:37;103126.0;;;2.46;90.04
64023;BME280;50264;52.088;5.296;2023-02-28T03:39:19;103129.0;;;2.57;89.63
64023;BME280;50264;52.088;5.296;2023-02-28T03:41:01;103124.0;;;2.64;89.64
64023;BME280;50264;52.088;5.296;2023-02-28T03:42:42;103125.0;;;2.61;88.78
64023;BME280;50264;52.088;5.296;2023-02-28T03:46:09;103125.0;;;2.61;89.13
64023;BME280;50264;52.088;5.296;2023-02-28T03:47:50;103123.0;;;2.61;89.19
64023;BME280;50264;52.088;5.296;2023-02-28T03:49:31;103124.0;;;2.68;88.87
64023;BME280;50264;52.088;5.296;2023-02-28T03:51:14;103124.0;;;2.67;88.34
64023;BME280;50264;52.088;5.296;2023-02-28T03:52:55;103126.0;;;2.56;88.19
64023;BME280;50264;52.088;5.296;2023-02-28T03:56:24;103130.0;;;2.7;88.98
64023;BME280;50264;52.088;5.296;2023-02-28T03:58:10;103130.0;;;2.6;88.56
64023;BME280;50264;52.088;5.296;2023-02-28T03:59:55;103139.00000000001;;;2.54;88.76
64023;BME280;50264;52.088;5.296;2023-02-28T04:01:37;103142.0;;;2.52;89.34
64023;BME280;50264;52.088;5.296;2023-02-28T04:03:16;103144.0;;;2.48;89.07
64023;BME280;50264;52.088;5.296;2023-02-28T04:06:31;103142.0;;;2.44;89.12
64023;BME280;50264;52.088;5.296;2023-02-28T04:08:08;103140.00000000001;;;2.48;89.9
64023;BME280;50264;52.088;5.296;2023-02-28T04:09:44;103143.0;;;2.46;90.12
64023;BME280;50264;52.088;5.296;2023-02-28T04:13:02;103140.00000000001;;;2.5;89.91
64023;BME280;50264;52.088;5.296;2023-02-28T04:14:38;103142.0;;;2.46;89.62
64023;BME280;50264;52.088;5.296;2023-02-28T04:16:15;103141.00000000001;;;2.48;89.62
64023;BME280;50264;52.088;5.296;2023-02-28T04:19:28;103144.0;;;2.52;90.26
64023;BME280;50264;52.088;5.296;2023-02-28T04:21:04;103150.0;;;2.52;89.93
64023;BME280;50264;52.088;5.296;2023-02-28T04:22:41;103147.0;;;2.56;90.0
64023;BME280;50264;52.088;5.296;2023-02-28T04:24:19;103143.0;;;2.56;90.23
64023;BME280;50264;52.088;5.296;2023-02-28T04:27:32;103142.0;;;2.57;89.19
64023;BME280;50264;52.088;5.296;2023-02-28T04:29:11;103145.0;;;2.59;88.84
64023;BME280;50264;52.088;5.296;2023-02-28T04:30:54;103144.0;;;2.61;89.01
64023;BME280;50264;52.088;5.296;2023-02-28T04:34:07;103149.0;;;2.6;89.06
64023;BME280;50264;52.088;5.296;2023-02-28T04:35:43;103144.0;;;2.65;88.63
64023;BME280;50264;52.088;5.296;2023-02-28T04:37:19;103145.0;;;2.66;88.16
64023;BME280;50264;52.088;5.296;2023-02-28T04:38:56;103150.0;;;2.69;87.62
64023;BME280;50264;52.088;5.296;2023-02-28T04:42:09;103152.0;;;2.64;88.35
64023;BME280;50264;52.088;5.296;2023-02-28T04:43:46;103154.0;;;2.68;87.81
64023;BME280;50264;52.088;5.296;2023-02-28T04:45:22;103159.99999999999;;;2.8;86.06
64023;BME280;50264;52.088;5.296;2023-02-28T04:48:36;103161.99999999999;;;2.8;83.21
64023;BME280;50264;52.088;5.296;2023-02-28T04:50:14;103150.0;;;2.79;84.74
64023;BME280;50264;52.088;5.296;2023-02-28T04:51:50;103153.0;;;2.83;85.55
64023;BME280;50264;52.088;5.296;2023-02-28T04:55:05;103151.0;;;2.9;82.05
64023;BME280;50264;52.088;5.296;2023-02-28T04:56:41;103159.99999999999;;;2.87;83.8
64023;BME280;50264;52.088;5.296;2023-02-28T04:58:18;103157.0;;;2.9;82.76
64023;BME280;50264;52.088;5.296;2023-02-28T04:59:54;103151.0;;;2.84;84.41
64023;BME280;50264;52.088;5.296;2023-02-28T05:03:09;103150.0;;;2.87;83.4
64023;BME280;50264;52.088;5.296;2023-02-28T05:04:45;103152.0;;;2.84;81.96
64023;BME280;50264;52.088;5.296;2023-02-28T05:06:23;103157.0;;;2.83;83.33
64023;BME280;50264;52.088;5.296;2023-02-28T05:09:35;103164.00000000001;;;2.75;84.21
64023;BME280;50264;52.088;5.296;2023-02-28T05:11:16;103153.0;;;2.72;84.35
64023;BME280;50264;52.088;5.296;2023-02-28T05:12:52;103150.0;;;2.71;83.69
64023;BME280;50264;52.088;5.296;2023-02-28T05:14:29;103148.0;;;2.78;80.8
64023;BME280;50264;52.088;5.296;2023-02-28T05:17:42;103144.0;;;2.76;83.26
64023;BME280;50264;52.088;5.296;2023-02-28T05:19:19;103142.0;;;2.71;80.92
64023;BME280;50264;52.088;5.296;2023-02-28T05:20:55;103153.0;;;2.7;82.96
64023;BME280;50264;52.088;5.296;2023-02-28T05:24:10;103153.0;;;2.77;84.06
64023;BME280;50264;52.088;5.296;2023-02-28T05:25:47;103158.99999999999;;;2.69;84.2
64023;BME280;50264;52.088;5.296;2023-02-28T05:27:24;103158.99999999999;;;2.79;84.84
64023;BME280;50264;52.088;5.296;2023-02-28T05:30:36;103166.00000000001;;;2.6;84.82
64023;BME280;50264;52.088;5.296;2023-02-28T05:32:12;103167.0;;;2.59;85.5
64023;BME280;50264;52.088;5.296;2023-02-28T05:33:49;103167.0;;;2.57;86.61
64023;BME280;50264;52.088;5.296;2023-02-28T05:35:26;103166.00000000001;;;2.54;86.58
64023;BME280;50264;52.088;5.296;2023-02-28T05:38:39;103167.0;;;2.54;87.42
64023;BME280;50264;52.088;5.296;2023-02-28T05:40:15;103167.0;;;2.5;87.17
64023;BME280;50264;52.088;5.296;2023-02-28T05:41:52;103167.0;;;2.46;87.42
64023;BME280;50264;52.088;5.296;2023-02-28T05:45:05;103167.0;;;2.39;86.5
64023;BME280;50264;52.088;5.296;2023-02-28T05:46:41;103168.0;;;2.46;87.77
64023;BME280;50264;52.088;5.296;2023-02-28T05:48:17;103165.00000000001;;;2.48;88.08
64023;BME280;50264;52.088;5.296;2023-02-28T05:51:30;103164.00000000001;;;2.46;88.13
64023;BME280;50264;52.088;5.296;2023-02-28T05:54:42;103166.00000000001;;;2.46;88.69
64023;BME280;50264;52.088;5.296;2023-02-28T05:56:18;103170.0;;;2.46;88.16
64023;BME280;50264;52.088;5.296;2023-02-28T05:59:30;103170.0;;;2.35;88.24
64023;BME280;50264;52.088;5.296;2023-02-28T06:01:32;103163.00000000001;;;2.27;88.89
64023;BME280;50264;52.088;5.296;2023-02-28T06:03:09;103169.0;;;2.27;89.4
64023;BME280;50264;52.088;5.296;2023-02-28T06:04:45;103168.0;;;2.25;89.75
64023;BME280;50264;52.088;5.296;2023-02-28T06:07:58;103172.0;;;2.14;90.27
64023;BME280;50264;52.088;5.296;2023-02-28T06:09:34;103166.00000000001;;;2.11;90.64
64023;BME280;50264;52.088;5.296;2023-02-28T06:11:11;103170.0;;;2.09;90.87
64023;BME280;50264;52.088;5.296;2023-02-28T06:14:25;103171.0;;;2.09;90.78
64023;BME280;50264;52.088;5.296;2023-02-28T06:16:01;103164.00000000001;;;2.0;90.87
64023;BME280;50264;52.088;5.296;2023-02-28T06:17:37;103159.99999999999;;;1.91;91.46
64023;BME280;50264;52.088;5.296;2023-02-28T06:20:52;103161.99999999999;;;1.89;91.64
64023;BME280;50264;52.088;5.296;2023-02-28T06:22:28;103159.99999999999;;;1.96;91.94
64023;BME280;50264;52.088;5.296;2023-02-28T06:24:05;103159.99999999999;;;1.88;92.04
64023;BME280;50264;52.088;5.296;2023-02-28T06:25:44;103166.00000000001;;;1.91;92.18
64023;BME280;50264;52.088;5.296;2023-02-28T06:28:57;103164.00000000001;;;2.0;92.38
64023;BME280;50264;52.088;5.296;2023-02-28T06:30:33;103157.0;;;2.0;92.6
64023;BME280;50264;52.088;5.296;2023-02-28T06:32:09;103156.0;;;1.96;92.68
64023;BME280;50264;52.088;5.296;2023-02-28T06:35:22;103153.0;;;2.04;92.5
64023;BME280;50264;52.088;5.296;2023-02-28T06:36:59;103155.0;;;1.94;92.82
64023;BME280;50264;52.088;5.296;2023-02-28T06:38:36;103156.0;;;1.91;92.69
64023;BME280;50264;52.088;5.296;2023-02-28T06:40:14;103159.99999999999;;;1.83;93.06
64023;BME280;50264;52.088;5.296;2023-02-28T06:43:29;103159.99999999999;;;1.81;93.62
64023;BME280;50264;52.088;5.296;2023-02-28T06:45:06;103165.00000000001;;;1.81;93.65
64023;BME280;50264;52.088;5.296;2023-02-28T06:46:43;103158.99999999999;;;1.79;93.58
64023;BME280;50264;52.088;5.296;2023-02-28T06:49:56;103163.00000000001;;;1.83;93.77
64023;BME280;50264;52.088;5.296;2023-02-28T06:51:33;103166.00000000001;;;1.78;93.46
64023;BME280;50264;52.088;5.296;2023-02-28T06:53:09;103165.00000000001;;;1.85;93.68
64023;BME280;50264;52.088;5.296;2023-02-28T06:56:21;103168.0;;;1.78;93.95
64023;BME280;50264;52.088;5.296;2023-02-28T06:57:58;103167.0;;;1.81;93.89
64023;BME280;50264;52.088;5.296;2023-02-28T06:59:35;103164.00000000001;;;1.88;94.03
64023;BME280;50264;52.088;5.296;2023-02-28T07:01:11;103158.99999999999;;;1.95;93.64
64023;BME280;50264;52.088;5.296;2023-02-28T07:04:25;103163.00000000001;;;1.88;93.42
64023;BME280;50264;52.088;5.296;2023-02-28T07:06:01;103172.0;;;1.93;93.75
64023;BME280;50264;52.088;5.296;2023-02-28T07:07:39;103168.0;;;1.88;93.57
64023;BME280;50264;52.088;5.296;2023-02-28T07:10:52;103164.00000000001;;;1.91;93.73
64023;BME280;50264;52.088;5.296;2023-02-28T07:12:29;103164.00000000001;;;2.05;93.99
64023;BME280;50264;52.088;5.296;2023-02-28T07:14:05;103177.0;;;2.12;93.9
64023;BME280;50264;52.088;5.296;2023-02-28T07:17:17;103173.0;;;2.11;93.99
64023;BME280;50264;52.088;5.296;2023-02-28T07:18:53;103179.0;;;2.12;93.53
64023;BME280;50264;52.088;5.296;2023-02-28T07:20:30;103180.0;;;2.08;93.17
64023;BME280;50264;52.088;5.296;2023-02-28T07:22:07;103175.0;;;2.04;93.33
64023;BME280;50264;52.088;5.296;2023-02-28T07:25:20;103172.0;;;2.02;93.47
64023;BME280;50264;52.088;5.296;2023-02-28T07:28:33;103169.0;;;2.27;92.77
64023;BME280;50264;52.088;5.296;2023-02-28T07:31:46;103175.0;;;2.29;93.09
64023;BME280;50264;52.088;5.296;2023-02-28T07:33:22;103184.99999999999;;;2.27;92.76
64023;BME280;50264;52.088;5.296;2023-02-28T07:34:59;103179.0;;;2.21;93.31
64023;BME280;50264;52.088;5.296;2023-02-28T07:38:11;103181.0;;;2.23;93.31
64023;BME280;50264;52.088;5.296;2023-02-28T07:39:47;103179.0;;;2.23;93.53
64023;BME280;50264;52.088;5.296;2023-02-28T07:41:23;103175.0;;;2.27;92.85
64023;BME280;50264;52.088;5.296;2023-02-28T07:42:59;103177.0;;;2.23;92.84
64023;BME280;50264;52.088;5.296;2023-02-28T07:47:52;103176.0;;;2.27;92.79
64023;BME280;50264;52.088;5.296;2023-02-28T07:49:29;103182.0;;;2.27;93.59
64023;BME280;50264;52.088;5.296;2023-02-28T07:52:41;103183.99999999999;;;2.41;94.01
64023;BME280;50264;52.088;5.296;2023-02-28T07:54:18;103189.00000000001;;;2.48;94.0
64023;BME280;50264;52.088;5.296;2023-02-28T07:55:55;103191.00000000001;;;2.48;93.13
64023;BME280;50264;52.088;5.296;2023-02-28T07:59:07;103193.0;;;2.5;93.76
64023;BME280;50264;52.088;5.296;2023-02-28T08:00:44;103186.99999999999;;;2.56;93.18
64023;BME280;50264;52.088;5.296;2023-02-28T08:02:20;103193.0;;;2.74;93.65
64023;BME280;50264;52.088;5.296;2023-02-28T08:03:56;103197.0;;;2.76;93.34
64023;BME280;50264;52.088;5.296;2023-02-28T08:07:08;103199.0;;;2.74;92.82
64023;BME280;50264;52.088;5.296;2023-02-28T08:08:44;103188.00000000001;;;2.81;92.92
64023;BME280;50264;52.088;5.296;2023-02-28T08:10:20;103179.0;;;2.78;92.92
64023;BME280;50264;52.088;5.296;2023-02-28T08:13:33;103197.0;;;2.81;92.42
64023;BME280;50264;52.088;5.296;2023-02-28T08:15:10;103202.0;;;2.9;92.59
64023;BME280;50264;52.088;5.296;2023-02-28T08:16:46;103205.0;;;2.9;92.58
64023;BME280;50264;52.088;5.296;2023-02-28T08:20:00;103203.0;;;2.88;92.56
64023;BME280;50264;52.088;5.296;2023-02-28T08:21:36;103200.0;;;2.82;92.48
64023;BME280;50264;52.088;5.296;2023-02-28T08:23:12;103198.0;;;3.02;92.52
64023;BME280;50264;52.088;5.296;2023-02-28T08:24:49;103206.0;;;3.0;92.1
64023;BME280;50264;52.088;5.296;2023-02-28T08:28:02;103208.0;;;3.07;92.28
64023;BME280;50264;52.088;5.296;2023-02-28T08:29:38;103217.0;;;3.13;91.58
64023;BME280;50264;52.088;5.296;2023-02-28T08:31:16;103205.0;;;3.1;91.59
64023;BME280;50264;52.088;5.296;2023-02-28T08:34:29;103201.0;;;3.28;90.37
64023;BME280;50264;52.088;5.296;2023-02-28T08:36:06;103205.0;;;3.34;88.42
64023;BME280;50264;52.088;5.296;2023-02-28T08:37:43;103203.0;;;3.38;88.11
64023;BME280;50264;52.088;5.296;2023-02-28T08:40:57;103208.0;;;3.43;87.58
64023;BME280;50264;52.088;5.296;2023-02-28T08:42:35;103204.0;;;3.54;85.96
64023;BME280;50264;52.088;5.296;2023-02-28T08:44:12;103195.0;;;3.53;86.19
64023;BME280;50264;52.088;5.296;2023-02-28T08:45:51;103207.0;;;3.61;85.81
64023;BME280;50264;52.088;5.296;2023-02-28T08:49:03;103205.0;;;3.62;85.14
64023;BME280;50264;52.088;5.296;2023-02-28T08:50:39;103203.0;;;3.45;82.08
64023;BME280;50264;52.088;5.296;2023-02-28T08:52:16;103208.99999999999;;;3.51;84.07
64023;BME280;50264;52.088;5.296;2023-02-28T08:55:30;103200.0;;;3.51;84.2
64023;BME280;50264;52.088;5.296;2023-02-28T08:57:06;103206.0;;;3.58;82.23
64023;BME280;50264;52.088;5.296;2023-02-28T08:58:43;103199.0;;;3.57;83.74
64023;BME280;50264;52.088;5.296;2023-02-28T09:00:21;103192.0;;;3.57;83.2
64023;BME280;50264;52.088;5.296;2023-02-28T09:03:34;103192.0;;;3.56;83.91
64023;BME280;50264;52.088;5.296;2023-02-28T09:05:10;103198.0;;;3.64;84.37
64023;BME280;50264;52.088;5.296;2023-02-28T09:06:46;103208.99999999999;;;3.73;80.86
64023;BME280;50264;52.088;5.296;2023-02-28T09:09:59;103203.0;;;3.81;82.23
64023;BME280;50264;52.088;5.296;2023-02-28T09:11:36;103205.0;;;3.87;82.74
64023;BME280;50264;52.088;5.296;2023-02-28T09:13:12;103208.0;;;3.74;78.97
64023;BME280;50264;52.088;5.296;2023-02-28T09:16:25;103207.0;;;3.79;79.88
64023;BME280;50264;52.088;5.296;2023-02-28T09:18:01;103201.0;;;3.9;80.08
64023;BME280;50264;52.088;5.296;2023-02-28T09:19:37;103200.0;;;3.93;79.63
64023;BME280;50264;52.088;5.296;2023-02-28T09:22:52;103203.0;;;4.05;81.12
64023;BME280;50264;52.088;5.296;2023-02-28T09:24:28;103205.0;;;3.97;75.8
64023;BME280;50264;52.088;5.296;2023-02-28T09:26:05;103205.0;;;4.1;77.5
64023;BME280;50264;52.088;5.296;2023-02-28T09:27:42;103204.0;;;4.24;77.22
64023;BME280;50264;52.088;5.296;2023-02-28T09:30:54;103205.0;;;4.25;74.02
64023;BME280;50264;52.088;5.296;2023-02-28T09:32:31;103201.0;;;4.36;74.05
64023;BME280;50264;52.088;5.296;2023-02-28T09:34:07;103199.0;;;4.46;76.61
64023;BME280;50264;52.088;5.296;2023-02-28T09:37:19;103200.0;;;4.62;69.99
64023;BME280;50264;52.088;5.296;2023-02-28T09:38:56;103199.0;;;4.71;68.44
64023;BME280;50264;52.088;5.296;2023-02-28T09:40:35;103200.0;;;4.87;74.69
64023;BME280;50264;52.088;5.296;2023-02-28T09:42:21;103205.0;;;4.99;68.3
64023;BME280;50264;52.088;5.296;2023-02-28T09:45:52;103207.0;;;4.92;64.74
64023;BME280;50264;52.088;5.296;2023-02-28T09:47:33;103209.99999999999;;;5.17;70.12
64023;BME280;50264;52.088;5.296;2023-02-28T09:49:14;103209.99999999999;;;5.22;66.8
64023;BME280;50264;52.088;5.296;2023-02-28T09:50:55;103207.0;;;5.29;67.08
64023;BME280;50264;52.088;5.296;2023-02-28T09:54:15;103204.0;;;5.36;60.12
64023;BME280;50264;52.088;5.296;2023-02-28T09:55:55;103207.0;;;5.37;60.39
64023;BME280;50264;52.088;5.296;2023-02-28T09:57:37;103209.99999999999;;;5.24;52.83
64023;BME280;50264;52.088;5.296;2023-02-28T09:59:29;103208.0;;;5.15;52.31
64023;BME280;50264;52.088;5.296;2023-02-28T10:01:23;103209.99999999999;;;5.14;50.37
64023;BME280;50264;52.088;5.296;2023-02-28T10:03:22;103217.0;;;5.01;51.83
64023;BME280;50264;52.088;5.296;2023-02-28T10:06:46;103213.00000000001;;;5.14;50.19
64023;BME280;50264;52.088;5.296;2023-02-28T10:08:26;103213.00000000001;;;5.22;52.99
64023;BME280;50264;52.088;5.296;2023-02-28T10:10:18;103207.0;;;5.42;55.25
64023;BME280;50264;52.088;5.296;2023-02-28T10:12:01;103202.0;;;5.41;52.25
64023;BME280;50264;52.088;5.296;2023-02-28T10:13:49;103201.0;;;5.57;57.46
64023;BME280;50264;52.088;5.296;2023-02-28T10:17:11;103200.0;;;5.54;49.37
64023;BME280;50264;52.088;5.296;2023-02-28T10:18:52;103196.0;;;5.77;56.15
64023;BME280;50264;52.088;5.296;2023-02-28T10:20:37;103194.0;;;5.65;51.28
64023;BME280;50264;52.088;5.296;2023-02-28T10:22:17;103195.0;;;5.53;46.76
64023;BME280;50264;52.088;5.296;2023-02-28T10:25:57;103191.00000000001;;;5.66;52.22
64023;BME280;50264;52.088;5.296;2023-02-28T10:27:34;103192.0;;;5.87;48.92
64023;BME280;50264;52.088;5.296;2023-02-28T10:29:11;103183.0;;;6.06;53.47
64023;BME280;50264;52.088;5.296;2023-02-28T10:30:49;103183.99999999999;;;6.21;52.97
64023;BME280;50264;52.088;5.296;2023-02-28T10:32:28;103183.0;;;6.23;51.5
64023;BME280;50264;52.088;5.296;2023-02-28T10:35:48;103181.0;;;6.22;49.46
64023;BME280;50264;52.088;5.296;2023-02-28T10:37:24;103175.0;;;6.28;50.0
64023;BME280;50264;52.088;5.296;2023-02-28T10:39:34;103171.0;;;6.49;53.66
64023;BME280;50264;52.088;5.296;2023-02-28T10:41:16;103175.0;;;6.66;52.54
64023;BME280;50264;52.088;5.296;2023-02-28T10:42:56;103178.0;;;6.75;49.32
64023;BME280;50264;52.088;5.296;2023-02-28T10:46:13;103179.0;;;6.91;50.11
64023;BME280;50264;52.088;5.296;2023-02-28T10:47:53;103183.0;;;7.1;51.26
64023;BME280;50264;52.088;5.296;2023-02-28T10:49:30;103190.00000000001;;;6.99;42.42
64023;BME280;50264;52.088;5.296;2023-02-28T10:52:46;103180.0;;;6.89;46.57
64023;BME280;50264;52.088;5.296;2023-02-28T10:54:24;103179.0;;;6.65;43.83
64023;BME280;50264;52.088;5.296;2023-02-28T10:56:05;103173.0;;;6.56;46.77
64023;BME280;50264;52.088;5.296;2023-02-28T10:57:49;103170.0;;;6.61;47.23
64023;BME280;50264;52.088;5.296;2023-02-28T11:01:12;103168.0;;;6.63;44.69
64023;BME280;50264;52.088;5.296;2023-02-28T11:02:50;103167.0;;;6.87;46.79
64023;BME280;50264;52.088;5.296;2023-02-28T11:04:36;103159.99999999999;;;7.06;49.09
64023;BME280;50264;52.088;5.296;2023-02-28T11:06:16;103156.0;;;7.05;46.27
64023;BME280;50264;52.088;5.296;2023-02-28T11:09:37;103154.0;;;7.03;48.81